sensor_id;sensor_type;location;lat;lon;timestamp;temperature;humidity
42907;DHT22;28552;51.146;6.576;2022-07-23T00:00:43;16.90;99.90
42907;DHT22;28552;51.146;6.576;2022-07-23T00:03:44;16.80;99.90
42907;DHT22;28552;51.146;6.576;2022-07-23T00:06:45;16.90;99.90
42907;DHT22;28552;51.146;6.576;2022-07-23T00:09:45;16.90;99.90
42907;DHT22;28552;51.146;6.576;2022-07-23T00:12:46;16.90;99.90
42907;DHT22;28552;51.146;6.576;2022-07-23T00:15:47;16.90;99.90
42907;DHT22;28552;51.146;6.576;2022-07-23T00:18:47;16.90;99.90
42907;DHT22;28552;51.146;6.576;2022-07-23T00:21:48;16.90;99.90
42907;DHT22;28552;51.146;6.576;2022-07-23T00:24:48;16.90;99.90
42907;DHT22;28552;51.146;6.576;2022-07-23T00:27:49;16.90;99.90
42907;DHT22;28552;51.146;6.576;2022-07-23T00:30:50;16.90;99.90
42907;DHT22;28552;51.146;6.576;2022-07-23T00:33:50;16.90;99.90
42907;DHT22;28552;51.146;6.576;2022-07-23T00:36:51;16.90;99.90
42907;DHT22;28552;51.146;6.576;2022-07-23T00:39:53;16.90;99.90
42907;DHT22;28552;51.146;6.576;2022-07-23T00:42:54;16.80;99.90
42907;DHT22;28552;51.146;6.576;2022-07-23T00:45:55;16.80;99.90
42907;DHT22;28552;51.146;6.576;2022-07-23T00:48:55;16.80;99.90
42907;DHT22;28552;51.146;6.576;2022-07-23T00:51:57;16.70;99.90
42907;DHT22;28552;51.146;6.576;2022-07-23T00:54:57;16.70;99.90
42907;DHT22;28552;51.146;6.576;2022-07-23T00:57:58;16.70;99.90
42907;DHT22;28552;51.146;6.576;2022-07-23T01:00:59;16.60;99.90
42907;DHT22;28552;51.146;6.576;2022-07-23T01:04:00;16.60;99.90
42907;DHT22;28552;51.146;6.576;2022-07-23T01:07:01;16.60;99.90
42907;DHT22;28552;51.146;6.576;2022-07-23T01:10:02;16.60;99.90
42907;DHT22;28552;51.146;6.576;2022-07-23T01:13:06;16.60;99.90
42907;DHT22;28552;51.146;6.576;2022-07-23T01:16:07;16.60;99.90
42907;DHT22;28552;51.146;6.576;2022-07-23T01:19:09;16.50;99.90
42907;DHT22;28552;51.146;6.576;2022-07-23T01:22:10;16.40;99.90
42907;DHT22;28552;51.146;6.576;2022-07-23T01:25:10;16.40;99.90
42907;DHT22;28552;51.146;6.576;2022-07-23T01:28:11;16.40;99.90
42907;DHT22;28552;51.146;6.576;2022-07-23T01:31:12;16.40;99.90
42907;DHT22;28552;51.146;6.576;2022-07-23T01:34:13;16.40;99.90
42907;DHT22;28552;51.146;6.576;2022-07-23T01:37:14;16.40;99.90
42907;DHT22;28552;51.146;6.576;2022-07-23T01:40:14;16.40;99.90
42907;DHT22;28552;51.146;6.576;2022-07-23T01:43:15;16.40;99.90
42907;DHT22;28552;51.146;6.576;2022-07-23T01:46:16;16.40;99.90
42907;DHT22;28552;51.146;6.576;2022-07-23T01:49:16;16.40;99.90
42907;DHT22;28552;51.146;6.576;2022-07-23T01:52:17;16.40;99.90
42907;DHT22;28552;51.146;6.576;2022-07-23T01:55:18;16.40;99.90
42907;DHT22;28552;51.146;6.576;2022-07-23T01:58:18;16.30;99.90
42907;DHT22;28552;51.146;6.576;2022-07-23T02:01:19;16.20;99.90
42907;DHT22;28552;51.146;6.576;2022-07-23T02:04:20;16.10;99.90
42907;DHT22;28552;51.146;6.576;2022-07-23T02:07:21;16.00;99.90
42907;DHT22;28552;51.146;6.576;2022-07-23T02:10:21;16.00;99.90
42907;DHT22;28552;51.146;6.576;2022-07-23T02:13:22;15.90;99.90
42907;DHT22;28552;51.146;6.576;2022-07-23T02:16:23;15.80;99.90
42907;DHT22;28552;51.146;6.576;2022-07-23T02:19:23;15.70;99.90
42907;DHT22;28552;51.146;6.576;2022-07-23T02:22:24;15.70;99.90
42907;DHT22;28552;51.146;6.576;2022-07-23T02:25:25;15.60;99.90
42907;DHT22;28552;51.146;6.576;2022-07-23T02:28:25;15.60;99.90
42907;DHT22;28552;51.146;6.576;2022-07-23T02:31:26;15.60;99.90
42907;DHT22;28552;51.146;6.576;2022-07-23T02:34:26;15.50;99.90
42907;DHT22;28552;51.146;6.576;2022-07-23T02:37:27;15.50;99.90
42907;DHT22;28552;51.146;6.576;2022-07-23T02:40:28;15.50;99.90
42907;DHT22;28552;51.146;6.576;2022-07-23T02:43:28;15.60;99.90
42907;DHT22;28552;51.146;6.576;2022-07-23T02:46:29;15.50;99.90
42907;DHT22;28552;51.146;6.576;2022-07-23T02:49:29;15.50;99.90
42907;DHT22;28552;51.146;6.576;2022-07-23T02:52:30;15.40;99.90
42907;DHT22;28552;51.146;6.576;2022-07-23T02:55:30;15.30;99.90
42907;DHT22;28552;51.146;6.576;2022-07-23T02:58:31;15.30;99.90
42907;DHT22;28552;51.146;6.576;2022-07-23T03:01:32;15.30;99.90
42907;DHT22;28552;51.146;6.576;2022-07-23T03:04:33;15.20;99.90
42907;DHT22;28552;51.146;6.576;2022-07-23T03:07:34;15.20;99.90
42907;DHT22;28552;51.146;6.576;2022-07-23T03:10:34;15.10;99.90
42907;DHT22;28552;51.146;6.576;2022-07-23T03:13:35;15.00;99.90
42907;DHT22;28552;51.146;6.576;2022-07-23T03:16:35;14.90;99.90
42907;DHT22;28552;51.146;6.576;2022-07-23T03:19:36;14.80;99.90
42907;DHT22;28552;51.146;6.576;2022-07-23T03:22:37;14.80;99.90
42907;DHT22;28552;51.146;6.576;2022-07-23T03:25:38;14.80;99.90
42907;DHT22;28552;51.146;6.576;2022-07-23T03:28:38;14.70;99.90
42907;DHT22;28552;51.146;6.576;2022-07-23T03:31:39;14.80;99.90
42907;DHT22;28552;51.146;6.576;2022-07-23T03:34:39;14.80;99.90
42907;DHT22;28552;51.146;6.576;2022-07-23T03:37:40;14.70;99.90
42907;DHT22;28552;51.146;6.576;2022-07-23T03:40:41;14.60;99.90
42907;DHT22;28552;51.146;6.576;2022-07-23T03:43:41;14.60;99.90
42907;DHT22;28552;51.146;6.576;2022-07-23T03:46:42;14.60;99.90
42907;DHT22;28552;51.146;6.576;2022-07-23T03:49:42;14.60;99.90
42907;DHT22;28552;51.146;6.576;2022-07-23T03:52:43;14.60;99.90
42907;DHT22;28552;51.146;6.576;2022-07-23T03:55:44;14.60;99.90
42907;DHT22;28552;51.146;6.576;2022-07-23T03:58:44;14.50;99.90
42907;DHT22;28552;51.146;6.576;2022-07-23T04:01:45;14.50;99.90
42907;DHT22;28552;51.146;6.576;2022-07-23T04:04:45;14.50;99.90
42907;DHT22;28552;51.146;6.576;2022-07-23T04:07:46;14.50;99.90
42907;DHT22;28552;51.146;6.576;2022-07-23T04:10:47;14.50;99.90
42907;DHT22;28552;51.146;6.576;2022-07-23T04:13:48;14.50;99.90
42907;DHT22;28552;51.146;6.576;2022-07-23T04:16:48;14.40;99.90
42907;DHT22;28552;51.146;6.576;2022-07-23T04:19:49;14.50;99.90
42907;DHT22;28552;51.146;6.576;2022-07-23T04:22:49;14.40;99.90
42907;DHT22;28552;51.146;6.576;2022-07-23T04:25:50;14.40;99.90
42907;DHT22;28552;51.146;6.576;2022-07-23T04:28:51;14.40;99.90
42907;DHT22;28552;51.146;6.576;2022-07-23T04:31:52;14.40;99.90
42907;DHT22;28552;51.146;6.576;2022-07-23T04:34:52;14.50;99.90
42907;DHT22;28552;51.146;6.576;2022-07-23T04:37:53;14.40;99.90
42907;DHT22;28552;51.146;6.576;2022-07-23T04:40:53;14.40;99.90
42907;DHT22;28552;51.146;6.576;2022-07-23T04:43:54;14.40;99.90
42907;DHT22;28552;51.146;6.576;2022-07-23T04:46:54;14.40;99.90
42907;DHT22;28552;51.146;6.576;2022-07-23T04:49:55;14.50;99.90
42907;DHT22;28552;51.146;6.576;2022-07-23T04:52:55;14.50;99.90
42907;DHT22;28552;51.146;6.576;2022-07-23T04:55:56;14.60;99.90
42907;DHT22;28552;51.146;6.576;2022-07-23T04:58:56;14.60;99.90
42907;DHT22;28552;51.146;6.576;2022-07-23T05:01:57;14.60;99.90
42907;DHT22;28552;51.146;6.576;2022-07-23T05:04:58;14.70;99.90
42907;DHT22;28552;51.146;6.576;2022-07-23T05:07:58;14.80;99.90
42907;DHT22;28552;51.146;6.576;2022-07-23T05:10:59;14.80;99.90
42907;DHT22;28552;51.146;6.576;2022-07-23T05:13:59;14.90;99.90
42907;DHT22;28552;51.146;6.576;2022-07-23T05:17:00;15.00;99.90
42907;DHT22;28552;51.146;6.576;2022-07-23T05:20:00;15.00;99.90
42907;DHT22;28552;51.146;6.576;2022-07-23T05:23:01;15.10;99.90
42907;DHT22;28552;51.146;6.576;2022-07-23T05:26:01;15.20;99.90
42907;DHT22;28552;51.146;6.576;2022-07-23T05:29:02;15.30;99.90
42907;DHT22;28552;51.146;6.576;2022-07-23T05:32:03;15.30;99.90
42907;DHT22;28552;51.146;6.576;2022-07-23T05:35:05;15.40;99.90
42907;DHT22;28552;51.146;6.576;2022-07-23T05:38:06;15.50;99.90
42907;DHT22;28552;51.146;6.576;2022-07-23T05:41:06;15.60;99.90
42907;DHT22;28552;51.146;6.576;2022-07-23T05:44:07;15.70;99.90
42907;DHT22;28552;51.146;6.576;2022-07-23T05:47:07;15.80;99.90
42907;DHT22;28552;51.146;6.576;2022-07-23T05:50:08;15.90;99.90
42907;DHT22;28552;51.146;6.576;2022-07-23T05:53:09;16.00;99.90
42907;DHT22;28552;51.146;6.576;2022-07-23T05:56:09;16.10;99.90
42907;DHT22;28552;51.146;6.576;2022-07-23T05:59:10;16.20;99.90
42907;DHT22;28552;51.146;6.576;2022-07-23T06:02:13;16.20;99.90
42907;DHT22;28552;51.146;6.576;2022-07-23T06:05:13;16.30;99.90
42907;DHT22;28552;51.146;6.576;2022-07-23T06:08:14;16.40;99.90
42907;DHT22;28552;51.146;6.576;2022-07-23T06:11:15;16.40;99.90
42907;DHT22;28552;51.146;6.576;2022-07-23T06:14:15;16.50;99.90
42907;DHT22;28552;51.146;6.576;2022-07-23T06:17:16;16.60;99.90
42907;DHT22;28552;51.146;6.576;2022-07-23T06:20:17;16.70;99.90
42907;DHT22;28552;51.146;6.576;2022-07-23T06:23:17;16.80;99.90
42907;DHT22;28552;51.146;6.576;2022-07-23T06:26:18;16.90;99.90
42907;DHT22;28552;51.146;6.576;2022-07-23T06:29:18;17.10;99.90
42907;DHT22;28552;51.146;6.576;2022-07-23T06:32:19;17.20;99.90
42907;DHT22;28552;51.146;6.576;2022-07-23T06:35:20;17.20;99.90
42907;DHT22;28552;51.146;6.576;2022-07-23T06:38:20;17.20;99.90
42907;DHT22;28552;51.146;6.576;2022-07-23T06:41:21;17.20;99.90
42907;DHT22;28552;51.146;6.576;2022-07-23T06:44:23;17.30;99.90
42907;DHT22;28552;51.146;6.576;2022-07-23T06:47:23;17.30;99.90
42907;DHT22;28552;51.146;6.576;2022-07-23T06:50:24;17.40;99.90
42907;DHT22;28552;51.146;6.576;2022-07-23T06:53:24;17.50;99.90
42907;DHT22;28552;51.146;6.576;2022-07-23T06:56:25;17.60;99.90
42907;DHT22;28552;51.146;6.576;2022-07-23T06:59:25;17.60;99.90
42907;DHT22;28552;51.146;6.576;2022-07-23T07:02:26;17.70;99.90
42907;DHT22;28552;51.146;6.576;2022-07-23T07:05:27;17.70;99.90
42907;DHT22;28552;51.146;6.576;2022-07-23T07:08:27;17.80;99.90
42907;DHT22;28552;51.146;6.576;2022-07-23T07:11:28;17.90;99.90
42907;DHT22;28552;51.146;6.576;2022-07-23T07:14:28;18.00;99.90
42907;DHT22;28552;51.146;6.576;2022-07-23T07:17:29;18.10;99.90
42907;DHT22;28552;51.146;6.576;2022-07-23T07:20:29;18.10;99.90
42907;DHT22;28552;51.146;6.576;2022-07-23T07:23:30;18.20;99.90
42907;DHT22;28552;51.146;6.576;2022-07-23T07:26:31;18.30;99.90
42907;DHT22;28552;51.146;6.576;2022-07-23T07:29:31;18.50;99.90
42907;DHT22;28552;51.146;6.576;2022-07-23T07:32:32;18.50;99.90
42907;DHT22;28552;51.146;6.576;2022-07-23T07:35:33;18.70;99.90
42907;DHT22;28552;51.146;6.576;2022-07-23T07:38:33;18.80;99.90
42907;DHT22;28552;51.146;6.576;2022-07-23T07:41:34;18.90;99.90
42907;DHT22;28552;51.146;6.576;2022-07-23T07:44:35;19.00;99.90
42907;DHT22;28552;51.146;6.576;2022-07-23T07:47:35;19.30;99.90
42907;DHT22;28552;51.146;6.576;2022-07-23T07:50:36;19.40;99.90
42907;DHT22;28552;51.146;6.576;2022-07-23T07:53:36;19.50;99.90
42907;DHT22;28552;51.146;6.576;2022-07-23T07:56:37;19.60;99.90
42907;DHT22;28552;51.146;6.576;2022-07-23T07:59:37;19.80;99.90
42907;DHT22;28552;51.146;6.576;2022-07-23T08:05:40;20.10;99.90
42907;DHT22;28552;51.146;6.576;2022-07-23T08:08:41;20.20;99.90
42907;DHT22;28552;51.146;6.576;2022-07-23T08:11:42;20.30;99.90
42907;DHT22;28552;51.146;6.576;2022-07-23T08:14:42;20.30;99.90
42907;DHT22;28552;51.146;6.576;2022-07-23T08:17:44;20.10;99.90
42907;DHT22;28552;51.146;6.576;2022-07-23T08:20:45;19.90;99.90
42907;DHT22;28552;51.146;6.576;2022-07-23T08:23:45;19.90;99.90
42907;DHT22;28552;51.146;6.576;2022-07-23T08:26:46;19.80;99.90
42907;DHT22;28552;51.146;6.576;2022-07-23T08:29:46;20.00;99.90
42907;DHT22;28552;51.146;6.576;2022-07-23T08:32:48;20.10;99.90
42907;DHT22;28552;51.146;6.576;2022-07-23T08:35:50;20.30;99.90
42907;DHT22;28552;51.146;6.576;2022-07-23T08:38:51;20.30;99.90
42907;DHT22;28552;51.146;6.576;2022-07-23T08:41:51;20.50;99.90
42907;DHT22;28552;51.146;6.576;2022-07-23T08:44:52;20.80;99.90
42907;DHT22;28552;51.146;6.576;2022-07-23T08:47:55;21.00;99.90
42907;DHT22;28552;51.146;6.576;2022-07-23T08:50:58;21.10;99.90
42907;DHT22;28552;51.146;6.576;2022-07-23T08:53:59;21.20;99.90
42907;DHT22;28552;51.146;6.576;2022-07-23T08:57:00;21.40;99.90
42907;DHT22;28552;51.146;6.576;2022-07-23T09:00:01;21.50;99.90
42907;DHT22;28552;51.146;6.576;2022-07-23T09:03:02;21.60;99.90
42907;DHT22;28552;51.146;6.576;2022-07-23T09:06:03;21.80;99.90
42907;DHT22;28552;51.146;6.576;2022-07-23T09:09:17;21.70;99.90
42907;DHT22;28552;51.146;6.576;2022-07-23T09:12:18;21.80;99.90
42907;DHT22;28552;51.146;6.576;2022-07-23T09:15:18;21.90;99.90
42907;DHT22;28552;51.146;6.576;2022-07-23T09:18:20;22.10;99.90
42907;DHT22;28552;51.146;6.576;2022-07-23T09:21:31;22.30;99.90
42907;DHT22;28552;51.146;6.576;2022-07-23T09:24:33;22.50;99.90
42907;DHT22;28552;51.146;6.576;2022-07-23T09:27:53;22.40;99.90
42907;DHT22;28552;51.146;6.576;2022-07-23T09:30:54;22.50;99.90
42907;DHT22;28552;51.146;6.576;2022-07-23T09:34:06;22.30;99.90
42907;DHT22;28552;51.146;6.576;2022-07-23T09:37:11;22.10;99.90
42907;DHT22;28552;51.146;6.576;2022-07-23T09:40:12;21.90;99.90
42907;DHT22;28552;51.146;6.576;2022-07-23T09:43:26;21.60;99.90
42907;DHT22;28552;51.146;6.576;2022-07-23T09:46:28;21.50;99.90
42907;DHT22;28552;51.146;6.576;2022-07-23T09:49:29;21.50;99.90
42907;DHT22;28552;51.146;6.576;2022-07-23T09:52:33;21.30;99.90
42907;DHT22;28552;51.146;6.576;2022-07-23T09:55:35;21.30;99.90
42907;DHT22;28552;51.146;6.576;2022-07-23T09:58:39;21.20;99.90
42907;DHT22;28552;51.146;6.576;2022-07-23T10:01:50;21.10;99.90
42907;DHT22;28552;51.146;6.576;2022-07-23T10:04:53;21.10;99.90
42907;DHT22;28552;51.146;6.576;2022-07-23T10:07:55;21.00;99.90
42907;DHT22;28552;51.146;6.576;2022-07-23T10:10:57;21.00;99.90
42907;DHT22;28552;51.146;6.576;2022-07-23T10:13:58;21.10;99.90
42907;DHT22;28552;51.146;6.576;2022-07-23T10:17:03;21.10;99.90
42907;DHT22;28552;51.146;6.576;2022-07-23T10:20:04;21.20;99.90
42907;DHT22;28552;51.146;6.576;2022-07-23T10:26:29;21.20;99.90
42907;DHT22;28552;51.146;6.576;2022-07-23T10:29:51;21.30;99.90
42907;DHT22;28552;51.146;6.576;2022-07-23T10:36:24;21.40;99.90
42907;DHT22;28552;51.146;6.576;2022-07-23T10:39:32;21.50;99.90
42907;DHT22;28552;51.146;6.576;2022-07-23T10:42:34;21.60;99.90
42907;DHT22;28552;51.146;6.576;2022-07-23T10:45:36;21.70;99.90
42907;DHT22;28552;51.146;6.576;2022-07-23T10:48:37;21.70;99.90
42907;DHT22;28552;51.146;6.576;2022-07-23T10:51:38;21.80;99.90
42907;DHT22;28552;51.146;6.576;2022-07-23T10:54:39;21.90;99.90
42907;DHT22;28552;51.146;6.576;2022-07-23T10:57:49;21.90;99.90
42907;DHT22;28552;51.146;6.576;2022-07-23T11:00:50;22.00;99.90
42907;DHT22;28552;51.146;6.576;2022-07-23T11:03:58;22.10;99.90
42907;DHT22;28552;51.146;6.576;2022-07-23T11:10:00;22.20;99.90
42907;DHT22;28552;51.146;6.576;2022-07-23T11:13:38;22.20;99.90
42907;DHT22;28552;51.146;6.576;2022-07-23T11:16:46;22.20;99.90
42907;DHT22;28552;51.146;6.576;2022-07-23T11:20:12;22.20;99.90
42907;DHT22;28552;51.146;6.576;2022-07-23T11:23:15;22.20;99.90
42907;DHT22;28552;51.146;6.576;2022-07-23T11:26:44;22.30;99.90
42907;DHT22;28552;51.146;6.576;2022-07-23T11:29:45;22.30;99.90
42907;DHT22;28552;51.146;6.576;2022-07-23T11:32:46;22.50;99.90
42907;DHT22;28552;51.146;6.576;2022-07-23T11:35:49;22.50;99.90
42907;DHT22;28552;51.146;6.576;2022-07-23T11:39:00;22.60;99.90
42907;DHT22;28552;51.146;6.576;2022-07-23T11:42:02;22.70;99.90
42907;DHT22;28552;51.146;6.576;2022-07-23T11:45:07;22.90;99.90
42907;DHT22;28552;51.146;6.576;2022-07-23T11:48:16;23.00;99.90
42907;DHT22;28552;51.146;6.576;2022-07-23T11:51:25;23.00;99.90
42907;DHT22;28552;51.146;6.576;2022-07-23T11:54:26;22.90;99.90
42907;DHT22;28552;51.146;6.576;2022-07-23T11:57:30;23.00;99.90
42907;DHT22;28552;51.146;6.576;2022-07-23T12:00:31;23.10;99.90
42907;DHT22;28552;51.146;6.576;2022-07-23T12:03:32;23.10;99.90
42907;DHT22;28552;51.146;6.576;2022-07-23T12:06:38;23.20;99.90
42907;DHT22;28552;51.146;6.576;2022-07-23T12:09:44;23.30;99.90
42907;DHT22;28552;51.146;6.576;2022-07-23T12:15:52;23.40;99.90
42907;DHT22;28552;51.146;6.576;2022-07-23T12:18:53;23.50;99.90
42907;DHT22;28552;51.146;6.576;2022-07-23T12:21:54;23.60;99.90
42907;DHT22;28552;51.146;6.576;2022-07-23T12:24:59;23.50;99.30
42907;DHT22;28552;51.146;6.576;2022-07-23T12:28:11;23.50;98.40
42907;DHT22;28552;51.146;6.576;2022-07-23T12:31:12;23.40;98.00
42907;DHT22;28552;51.146;6.576;2022-07-23T12:34:14;23.40;97.50
42907;DHT22;28552;51.146;6.576;2022-07-23T12:37:31;23.40;97.20
42907;DHT22;28552;51.146;6.576;2022-07-23T12:40:34;23.50;97.90
42907;DHT22;28552;51.146;6.576;2022-07-23T12:43:39;23.70;98.00
42907;DHT22;28552;51.146;6.576;2022-07-23T12:46:40;23.90;97.90
42907;DHT22;28552;51.146;6.576;2022-07-23T12:49:41;23.90;97.00
42907;DHT22;28552;51.146;6.576;2022-07-23T12:52:42;23.90;96.50
42907;DHT22;28552;51.146;6.576;2022-07-23T12:55:44;23.90;96.60
42907;DHT22;28552;51.146;6.576;2022-07-23T12:58:49;23.90;96.30
42907;DHT22;28552;51.146;6.576;2022-07-23T13:01:57;23.90;96.50
42907;DHT22;28552;51.146;6.576;2022-07-23T13:04:59;24.00;96.20
42907;DHT22;28552;51.146;6.576;2022-07-23T13:07:59;24.00;95.80
42907;DHT22;28552;51.146;6.576;2022-07-23T13:11:03;24.00;95.30
42907;DHT22;28552;51.146;6.576;2022-07-23T13:14:06;24.00;96.20
42907;DHT22;28552;51.146;6.576;2022-07-23T13:17:07;24.10;95.60
42907;DHT22;28552;51.146;6.576;2022-07-23T13:20:08;24.20;95.70
42907;DHT22;28552;51.146;6.576;2022-07-23T13:23:09;24.30;95.40
42907;DHT22;28552;51.146;6.576;2022-07-23T13:26:09;24.40;95.00
42907;DHT22;28552;51.146;6.576;2022-07-23T13:29:10;24.50;94.80
42907;DHT22;28552;51.146;6.576;2022-07-23T13:32:12;24.50;94.20
42907;DHT22;28552;51.146;6.576;2022-07-23T13:35:13;24.50;93.70
42907;DHT22;28552;51.146;6.576;2022-07-23T13:38:13;24.50;93.50
42907;DHT22;28552;51.146;6.576;2022-07-23T13:41:16;24.50;93.90
42907;DHT22;28552;51.146;6.576;2022-07-23T13:44:17;24.60;94.40
42907;DHT22;28552;51.146;6.576;2022-07-23T13:47:19;24.70;94.10
42907;DHT22;28552;51.146;6.576;2022-07-23T13:50:20;24.80;93.50
42907;DHT22;28552;51.146;6.576;2022-07-23T13:53:23;24.80;93.20
42907;DHT22;28552;51.146;6.576;2022-07-23T13:56:23;24.90;92.80
42907;DHT22;28552;51.146;6.576;2022-07-23T13:59:24;24.90;92.20
42907;DHT22;28552;51.146;6.576;2022-07-23T14:02:25;24.90;91.70
42907;DHT22;28552;51.146;6.576;2022-07-23T14:05:26;24.80;91.10
42907;DHT22;28552;51.146;6.576;2022-07-23T14:08:26;24.70;91.20
42907;DHT22;28552;51.146;6.576;2022-07-23T14:11:27;24.70;91.50
42907;DHT22;28552;51.146;6.576;2022-07-23T14:14:28;24.70;91.40
42907;DHT22;28552;51.146;6.576;2022-07-23T14:17:29;24.80;91.80
42907;DHT22;28552;51.146;6.576;2022-07-23T14:20:29;24.90;90.90
42907;DHT22;28552;51.146;6.576;2022-07-23T14:23:30;25.00;91.60
42907;DHT22;28552;51.146;6.576;2022-07-23T14:26:30;25.00;91.20
42907;DHT22;28552;51.146;6.576;2022-07-23T14:29:31;24.90;91.00
42907;DHT22;28552;51.146;6.576;2022-07-23T14:32:32;24.90;91.10
42907;DHT22;28552;51.146;6.576;2022-07-23T14:35:33;25.00;90.60
42907;DHT22;28552;51.146;6.576;2022-07-23T14:38:33;25.00;90.10
42907;DHT22;28552;51.146;6.576;2022-07-23T14:41:34;25.00;89.10
42907;DHT22;28552;51.146;6.576;2022-07-23T14:44:36;24.90;88.60
42907;DHT22;28552;51.146;6.576;2022-07-23T14:47:37;25.00;88.60
42907;DHT22;28552;51.146;6.576;2022-07-23T14:50:37;25.00;89.40
42907;DHT22;28552;51.146;6.576;2022-07-23T14:53:38;25.10;89.20
42907;DHT22;28552;51.146;6.576;2022-07-23T14:56:39;25.20;88.30
42907;DHT22;28552;51.146;6.576;2022-07-23T14:59:39;25.20;87.20
42907;DHT22;28552;51.146;6.576;2022-07-23T15:02:42;25.20;87.10
42907;DHT22;28552;51.146;6.576;2022-07-23T15:05:43;25.10;86.20
42907;DHT22;28552;51.146;6.576;2022-07-23T15:08:43;25.20;86.30
42907;DHT22;28552;51.146;6.576;2022-07-23T15:11:44;25.10;86.50
42907;DHT22;28552;51.146;6.576;2022-07-23T15:14:45;25.10;87.00
42907;DHT22;28552;51.146;6.576;2022-07-23T15:17:46;25.10;85.60
42907;DHT22;28552;51.146;6.576;2022-07-23T15:20:46;25.10;85.10
42907;DHT22;28552;51.146;6.576;2022-07-23T15:23:48;25.00;84.80
42907;DHT22;28552;51.146;6.576;2022-07-23T15:26:48;25.00;85.10
42907;DHT22;28552;51.146;6.576;2022-07-23T15:29:49;24.90;84.80
42907;DHT22;28552;51.146;6.576;2022-07-23T15:32:50;24.80;85.50
42907;DHT22;28552;51.146;6.576;2022-07-23T15:35:51;24.70;86.60
42907;DHT22;28552;51.146;6.576;2022-07-23T15:38:53;24.60;86.80
42907;DHT22;28552;51.146;6.576;2022-07-23T15:41:53;24.60;86.60
42907;DHT22;28552;51.146;6.576;2022-07-23T15:44:54;24.70;86.10
42907;DHT22;28552;51.146;6.576;2022-07-23T15:47:54;24.80;86.60
42907;DHT22;28552;51.146;6.576;2022-07-23T15:50:56;24.90;86.00
42907;DHT22;28552;51.146;6.576;2022-07-23T15:53:56;25.00;84.60
42907;DHT22;28552;51.146;6.576;2022-07-23T15:56:57;25.10;84.20
42907;DHT22;28552;51.146;6.576;2022-07-23T15:59:57;25.20;85.80
42907;DHT22;28552;51.146;6.576;2022-07-23T16:02:58;25.40;84.30
42907;DHT22;28552;51.146;6.576;2022-07-23T16:05:59;25.40;84.10
42907;DHT22;28552;51.146;6.576;2022-07-23T16:08:59;25.40;83.10
42907;DHT22;28552;51.146;6.576;2022-07-23T16:12:02;25.40;83.70
42907;DHT22;28552;51.146;6.576;2022-07-23T16:15:03;25.40;82.40
42907;DHT22;28552;51.146;6.576;2022-07-23T16:18:04;25.50;82.50
42907;DHT22;28552;51.146;6.576;2022-07-23T16:21:05;25.60;81.90
42907;DHT22;28552;51.146;6.576;2022-07-23T16:24:06;25.60;81.80
42907;DHT22;28552;51.146;6.576;2022-07-23T16:27:07;25.60;81.70
42907;DHT22;28552;51.146;6.576;2022-07-23T16:30:09;25.60;81.60
42907;DHT22;28552;51.146;6.576;2022-07-23T16:33:10;25.60;81.70
42907;DHT22;28552;51.146;6.576;2022-07-23T16:36:11;25.60;82.40
42907;DHT22;28552;51.146;6.576;2022-07-23T16:39:11;25.60;82.10
42907;DHT22;28552;51.146;6.576;2022-07-23T16:42:12;25.60;81.00
42907;DHT22;28552;51.146;6.576;2022-07-23T16:45:13;25.60;80.70
42907;DHT22;28552;51.146;6.576;2022-07-23T16:48:14;25.50;80.30
42907;DHT22;28552;51.146;6.576;2022-07-23T16:51:14;25.40;80.40
42907;DHT22;28552;51.146;6.576;2022-07-23T16:54:15;25.30;80.70
42907;DHT22;28552;51.146;6.576;2022-07-23T16:57:17;25.40;80.50
42907;DHT22;28552;51.146;6.576;2022-07-23T17:00:17;25.30;79.70
42907;DHT22;28552;51.146;6.576;2022-07-23T17:03:18;25.40;81.00
42907;DHT22;28552;51.146;6.576;2022-07-23T17:06:18;25.40;80.30
42907;DHT22;28552;51.146;6.576;2022-07-23T17:09:19;25.50;80.90
42907;DHT22;28552;51.146;6.576;2022-07-23T17:12:19;25.60;79.20
42907;DHT22;28552;51.146;6.576;2022-07-23T17:15:20;25.70;79.00
42907;DHT22;28552;51.146;6.576;2022-07-23T17:18:22;25.80;78.70
42907;DHT22;28552;51.146;6.576;2022-07-23T17:21:23;26.10;79.40
42907;DHT22;28552;51.146;6.576;2022-07-23T17:24:23;26.30;77.30
42907;DHT22;28552;51.146;6.576;2022-07-23T17:27:24;26.40;76.60
42907;DHT22;28552;51.146;6.576;2022-07-23T17:30:25;26.60;76.00
42907;DHT22;28552;51.146;6.576;2022-07-23T17:33:26;26.70;75.10
42907;DHT22;28552;51.146;6.576;2022-07-23T17:36:27;26.80;75.00
42907;DHT22;28552;51.146;6.576;2022-07-23T17:39:27;26.90;73.00
42907;DHT22;28552;51.146;6.576;2022-07-23T17:42:28;27.00;73.00
42907;DHT22;28552;51.146;6.576;2022-07-23T17:45:28;27.00;72.20
42907;DHT22;28552;51.146;6.576;2022-07-23T17:48:29;27.10;72.40
42907;DHT22;28552;51.146;6.576;2022-07-23T17:51:30;27.20;70.80
42907;DHT22;28552;51.146;6.576;2022-07-23T17:54:31;27.20;69.70
42907;DHT22;28552;51.146;6.576;2022-07-23T17:57:32;27.20;69.40
42907;DHT22;28552;51.146;6.576;2022-07-23T18:00:35;27.20;68.60
42907;DHT22;28552;51.146;6.576;2022-07-23T18:03:38;27.10;69.40
42907;DHT22;28552;51.146;6.576;2022-07-23T18:06:40;27.00;70.00
42907;DHT22;28552;51.146;6.576;2022-07-23T18:09:41;27.00;71.50
42907;DHT22;28552;51.146;6.576;2022-07-23T18:12:42;26.90;71.90
42907;DHT22;28552;51.146;6.576;2022-07-23T18:15:43;26.60;72.30
42907;DHT22;28552;51.146;6.576;2022-07-23T18:18:44;26.30;72.80
42907;DHT22;28552;51.146;6.576;2022-07-23T18:21:44;26.10;73.50
42907;DHT22;28552;51.146;6.576;2022-07-23T18:24:45;26.00;72.60
42907;DHT22;28552;51.146;6.576;2022-07-23T18:27:46;25.90;74.20
42907;DHT22;28552;51.146;6.576;2022-07-23T18:30:46;25.80;75.90
42907;DHT22;28552;51.146;6.576;2022-07-23T18:33:47;25.70;76.60
42907;DHT22;28552;51.146;6.576;2022-07-23T18:36:48;25.50;77.30
42907;DHT22;28552;51.146;6.576;2022-07-23T18:39:48;25.40;78.50
42907;DHT22;28552;51.146;6.576;2022-07-23T18:42:49;25.10;79.20
42907;DHT22;28552;51.146;6.576;2022-07-23T18:45:50;24.90;79.80
42907;DHT22;28552;51.146;6.576;2022-07-23T18:48:51;24.70;81.00
42907;DHT22;28552;51.146;6.576;2022-07-23T18:51:52;24.40;82.20
42907;DHT22;28552;51.146;6.576;2022-07-23T18:54:54;24.20;83.80
42907;DHT22;28552;51.146;6.576;2022-07-23T18:57:55;23.90;85.40
42907;DHT22;28552;51.146;6.576;2022-07-23T19:01:02;23.60;87.30
42907;DHT22;28552;51.146;6.576;2022-07-23T19:04:02;23.40;89.00
42907;DHT22;28552;51.146;6.576;2022-07-23T19:07:03;23.20;90.20
42907;DHT22;28552;51.146;6.576;2022-07-23T19:10:05;23.10;90.80
42907;DHT22;28552;51.146;6.576;2022-07-23T19:13:06;22.90;91.60
42907;DHT22;28552;51.146;6.576;2022-07-23T19:16:07;22.70;92.80
42907;DHT22;28552;51.146;6.576;2022-07-23T19:19:08;22.60;93.40
42907;DHT22;28552;51.146;6.576;2022-07-23T19:22:09;22.40;94.00